Time;durP1;ratioP1;P1;durP2;ratioP2;P2;SDS_P1;SDS_P2;PMS_P1;PMS_P2;Temp;Humidity;BMP_temperature;BMP_pressure;BME280_temperature;BME280_humidity;BME280_pressure;Samples;Min_cycle;Max_cycle;Signal;HPM_P1;HPM_P2
2021/12/05 00:23:18;;;;;;;6.57;1.70;;;4.50;97.10;;;;;;4993660;28;20034;-77
2021/12/05 00:25:48;;;;;;;2.50;1.50;;;4.60;97.00;;;;;;4975239;28;20038;-77
2021/12/05 00:34:06;;;;;;;6.18;2.08;;;4.70;96.60;;;;;;4992893;28;20383;-77
2021/12/05 00:37:40;;;;;;;2.97;1.58;;;4.70;96.90;;;;;;4975127;28;20069;-77
2021/12/05 01:16:33;;;;;;;10.55;3.90;;;4.30;99.90;;;;;;4974241;28;20042;-76
2021/12/05 01:19:03;;;;;;;5.50;3.22;;;4.30;99.90;;;;;;4959294;28;20471;-76
2021/12/05 01:21:31;;;;;;;20.13;9.77;;;4.30;99.90;;;;;;4974544;28;20046;-77
2021/12/05 01:26:54;;;;;;;16.40;11.20;;;4.20;99.90;;;;;;4974809;28;20042;-76
2021/12/05 01:37:54;;;;;;;8.20;3.30;;;3.90;99.90;;;;;;4991666;28;20026;-77
2021/12/05 01:40:33;;;;;;;18.33;14.20;;;3.90;99.90;;;;;;4974938;28;20051;-76
2021/12/05 02:10:48;;;;;;;30.13;17.48;;;4.10;99.90;;;;;;4973985;28;20050;-78
2021/12/05 02:29:41;;;;;;;4.43;2.65;;;4.30;99.90;;;;;;4977935;28;20035;-76
2021/12/05 02:32:35;;;;;;;4.77;2.63;;;4.40;99.90;;;;;;4978117;28;20050;-76
2021/12/05 02:38:04;;;;;;;5.18;2.50;;;4.40;99.90;;;;;;4994937;28;20041;-77
2021/12/05 02:40:46;;;;;;;8.95;2.88;;;4.40;99.90;;;;;;4977280;28;20042;-76
2021/12/05 02:43:23;;;;;;;7.38;3.10;;;4.50;99.90;;;;;;4977322;28;20049;-76
2021/12/05 02:45:50;;;;;;;5.63;4.30;;;4.50;99.90;;;;;;4994660;28;20047;-76
2021/12/05 02:48:16;;;;;;;9.90;4.88;;;4.60;99.90;;;;;;4995183;28;20041;-76
2021/12/05 02:50:43;;;;;;;8.18;3.25;;;4.70;99.90;;;;;;4976564;28;20051;-76
2021/12/05 02:53:29;;;;;;;34.53;23.35;;;4.80;99.90;;;;;;4977454;28;20045;-76
2021/12/05 02:55:56;;;;;;;7.35;4.20;;;4.70;99.90;;;;;;4976882;28;20038;-76
2021/12/05 03:01:10;;;;;;;6.13;1.77;;;4.80;98.90;;;;;;4977441;28;20042;-76
2021/12/05 03:03:37;;;;;;;9.05;2.35;;;5.00;95.80;;;;;;4960827;28;20049;-76
2021/12/05 03:06:20;;;;;;;5.80;1.83;;;5.00;94.90;;;;;;4977317;28;20046;-76
2021/12/05 03:08:49;;;;;;;3.70;1.60;;;5.00;93.90;;;;;;4994316;28;20031;-75
2021/12/05 03:11:16;;;;;;;5.63;4.07;;;5.10;92.50;;;;;;4993915;28;20050;-76
2021/12/05 03:13:42;;;;;;;3.25;2.13;;;5.10;92.30;;;;;;4976078;28;20471;-76
2021/12/05 03:16:11;;;;;;;5.18;2.05;;;5.10;92.30;;;;;;4976846;28;20046;-76
2021/12/05 03:18:38;;;;;;;4.78;2.47;;;5.10;91.40;;;;;;4993862;28;20037;-76
2021/12/05 03:21:07;;;;;;;10.88;2.38;;;5.10;91.70;;;;;;4960834;28;20486;-76
2021/12/05 03:23:36;;;;;;;3.97;1.60;;;5.10;91.60;;;;;;4993293;28;20037;-77
2021/12/05 03:26:05;;;;;;;8.82;2.03;;;5.10;91.20;;;;;;4994313;28;20277;-76
2021/12/05 03:28:32;;;;;;;34.42;25.20;;;5.10;91.70;;;;;;4976716;28;20403;-76
2021/12/05 03:31:01;;;;;;;50.33;32.38;;;5.10;92.10;;;;;;4976841;28;20126;-76
2021/12/05 03:33:27;;;;;;;29.58;17.85;;;5.00;92.10;;;;;;4976385;28;20071;-76
2021/12/05 03:35:55;;;;;;;133.25;100.88;;;4.90;91.80;;;;;;4975950;28;20042;-76
2021/12/05 03:38:23;;;;;;;40.95;31.23;;;4.90;92.20;;;;;;4977043;28;20479;-76
2021/12/05 03:40:51;;;;;;;151.30;101.40;;;4.80;92.80;;;;;;4975665;28;20057;-76
2021/12/05 03:43:20;;;;;;;198.38;129.13;;;4.70;94.80;;;;;;4976631;28;20047;-76
2021/12/05 03:45:51;;;;;;;240.32;147.35;;;4.60;97.00;;;;;;4976120;28;20057;-77
2021/12/05 03:48:22;;;;;;;62.22;31.98;;;4.30;99.60;;;;;;4976740;28;20042;-76
2021/12/05 03:50:49;;;;;;;156.35;102.40;;;4.20;99.90;;;;;;4975450;28;20050;-76
2021/12/05 03:53:17;;;;;;;76.10;50.47;;;4.10;99.90;;;;;;4976478;28;20049;-76
2021/12/05 03:55:48;;;;;;;44.35;26.65;;;4.00;99.90;;;;;;4975442;28;20515;-76
2021/12/05 03:58:16;;;;;;;275.42;178.93;;;4.00;99.90;;;;;;4993172;28;20038;-76
2021/12/05 04:00:45;;;;;;;90.13;65.95;;;3.90;99.90;;;;;;4975747;28;20050;-76
2021/12/05 04:03:16;;;;;;;126.15;83.65;;;3.90;99.90;;;;;;4976422;28;20049;-76
2021/12/05 04:05:43;;;;;;;18.98;8.95;;;3.80;99.90;;;;;;4975682;28;20049;-76
2021/12/05 04:08:13;;;;;;;61.05;27.30;;;3.80;99.90;;;;;;4976111;28;20399;-76
2021/12/05 04:10:44;;;;;;;154.68;114.53;;;3.70;99.90;;;;;;4993020;28;20046;-76
2021/12/05 04:13:12;;;;;;;97.05;69.35;;;3.60;99.90;;;;;;4975775;28;20046;-76
2021/12/05 04:15:38;;;;;;;8.32;6.18;;;3.40;99.90;;;;;;4975394;28;20046;-77
2021/12/05 04:18:05;;;;;;;31.52;22.55;;;3.40;99.90;;;;;;4976334;28;20031;-76
2021/12/05 04:20:32;;;;;;;21.33;13.57;;;3.30;99.90;;;;;;4975939;28;20050;-76
2021/12/05 04:22:59;;;;;;;8.38;3.85;;;3.20;99.90;;;;;;4992136;28;20365;-76
2021/12/05 04:25:26;;;;;;;13.02;7.45;;;3.10;99.90;;;;;;4975628;28;20046;-76
2021/12/05 04:27:54;;;;;;;7.65;6.05;;;3.10;99.90;;;;;;4975636;28;20142;-77
2021/12/05 04:30:23;;;;;;;24.73;22.48;;;3.10;99.90;;;;;;4978153;28;20408;-77
2021/12/05 04:32:52;;;;;;;9.23;8.18;;;3.10;99.90;;;;;;4978485;28;20384;-77
2021/12/05 04:35:18;;;;;;;7.00;5.90;;;3.00;99.90;;;;;;4975340;28;20376;-76
2021/12/05 04:37:45;;;;;;;7.45;5.30;;;3.00;99.90;;;;;;4992735;28;20037;-76
2021/12/05 04:40:13;;;;;;;58.85;52.70;;;3.00;99.90;;;;;;4993417;28;20034;-76
2021/12/05 04:42:43;;;;;;;9.23;7.50;;;3.00;99.90;;;;;;4974963;28;20038;-76
2021/12/05 04:45:18;;;;;;;28.25;5.35;;;3.10;99.90;;;;;;4993165;28;20049;-76
2021/12/05 04:47:45;;;;;;;8.63;4.85;;;3.10;99.90;;;;;;4974900;28;20043;-75
2021/12/05 04:50:14;;;;;;;13.27;4.90;;;3.20;99.90;;;;;;4959515;28;20083;-76
2021/12/05 04:52:41;;;;;;;7.97;5.97;;;3.20;99.90;;;;;;4974812;28;20042;-76
2021/12/05 04:55:09;;;;;;;9.98;7.25;;;3.20;99.90;;;;;;4975246;28;20038;-77
2021/12/05 04:57:38;;;;;;;28.83;21.92;;;3.20;99.90;;;;;;4993157;28;20045;-76
2021/12/05 05:00:12;;;;;;;4.65;2.80;;;3.10;99.90;;;;;;4959037;28;20046;-76
2021/12/05 05:02:40;;;;;;;5.65;2.63;;;3.10;99.90;;;;;;4993088;28;20026;-76
2021/12/05 05:05:07;;;;;;;11.95;7.07;;;3.10;99.90;;;;;;4993039;28;20031;-76
2021/12/05 05:07:35;;;;;;;13.35;8.77;;;3.10;99.90;;;;;;4975220;28;20041;-76
2021/12/05 05:10:11;;;;;;;19.73;12.75;;;3.00;99.90;;;;;;4974729;28;20034;-76
2021/12/05 05:12:37;;;;;;;17.02;14.20;;;3.10;99.90;;;;;;4992586;28;20472;-77
2021/12/05 05:15:04;;;;;;;14.35;10.55;;;3.30;99.90;;;;;;4991964;28;20058;-76
2021/12/05 05:17:31;;;;;;;6.72;4.45;;;3.40;99.90;;;;;;4992718;28;20031;-76
2021/12/05 05:20:02;;;;;;;11.27;6.72;;;3.50;99.90;;;;;;4992066;28;20081;-77
2021/12/05 05:22:43;;;;;;;;;;;3.50;99.90;;;;;;4993488;28;20026;-76
2021/12/05 05:39:00;;;;;;;5.88;2.85;;;3.50;99.90;;;;;;4992508;28;20042;-76
2021/12/05 05:47:32;;;;;;;5.90;2.05;;;3.20;99.90;;;;;;4987526;28;20042;-76
2021/12/05 05:50:01;;;;;;;11.63;9.45;;;3.20;99.90;;;;;;4995875;28;20034;-76
2021/12/05 05:52:29;;;;;;;5.40;3.87;;;3.10;99.90;;;;;;4978565;28;20050;-76
2021/12/05 05:54:57;;;;;;;18.95;17.02;;;3.10;99.90;;;;;;4995935;28;20030;-76
2021/12/05 05:57:36;;;;;;;12.57;11.43;;;3.00;99.90;;;;;;4995917;28;20039;-76
2021/12/05 06:00:14;;;;;;;12.05;6.72;;;3.00;99.90;;;;;;4995331;28;20046;-76
2021/12/05 06:05:29;;;;;;;70.72;48.53;;;3.10;99.90;;;;;;4996285;28;20125;-76
2021/12/05 06:07:56;;;;;;;264.13;191.50;;;3.10;99.90;;;;;;4995229;28;20459;-76
2021/12/05 06:10:25;;;;;;;59.88;44.47;;;3.20;99.90;;;;;;4995630;28;20038;-76
2021/12/05 06:12:52;;;;;;;33.08;24.42;;;3.30;99.90;;;;;;4977258;28;20428;-76
2021/12/05 06:15:20;;;;;;;73.93;50.97;;;3.30;99.90;;;;;;4978054;28;20039;-75
2021/12/05 06:17:47;;;;;;;98.97;71.72;;;3.30;99.90;;;;;;4995386;28;20030;-76
2021/12/05 06:20:17;;;;;;;54.25;36.63;;;3.40;99.90;;;;;;4995593;28;20035;-76
2021/12/05 06:22:45;;;;;;;78.10;49.65;;;3.40;99.90;;;;;;4994334;28;20034;-76
2021/12/05 06:25:18;;;;;;;52.28;32.30;;;3.40;99.90;;;;;;4994400;28;20054;-76
2021/12/05 06:27:46;;;;;;;21.08;15.38;;;3.50;99.90;;;;;;4977906;28;20050;-77
2021/12/05 06:30:36;;;;;;;65.85;40.55;;;3.50;99.90;;;;;;4995274;28;20049;-76
2021/12/05 06:48:38;;;;;;;18.23;15.70;;;3.40;99.90;;;;;;4995249;28;20031;-76
2021/12/05 06:51:05;;;;;;;9.25;7.38;;;3.40;99.90;;;;;;4994448;28;20050;-76
2021/12/05 06:53:31;;;;;;;11.07;3.38;;;3.50;99.90;;;;;;4994840;28;20030;-76
2021/12/05 06:55:57;;;;;;;4.00;2.83;;;3.50;99.90;;;;;;4994248;28;20045;-76
2021/12/05 06:58:24;;;;;;;5.22;2.80;;;3.50;99.90;;;;;;4993681;28;20026;-76
2021/12/05 07:00:50;;;;;;;7.40;2.88;;;3.50;99.90;;;;;;4994435;28;20038;-76
2021/12/05 07:03:16;;;;;;;5.40;2.92;;;3.50;99.90;;;;;;4994632;28;20452;-76
2021/12/05 07:05:52;;;;;;;7.38;2.10;;;3.50;99.90;;;;;;4994688;28;20049;-76
2021/12/05 07:08:20;;;;;;;6.32;2.85;;;3.60;99.90;;;;;;4994670;28;20030;-75
2021/12/05 07:14:10;;;;;;;5.35;2.67;;;3.60;99.90;;;;;;4994467;28;20058;-76
2021/12/05 07:16:12;;;;;;;4.93;2.65;;;3.60;99.90;;;;;;4971415;28;20046;-76
2021/12/05 07:18:54;;;;;;;7.20;2.70;;;3.60;99.90;;;;;;4994396;28;20041;-76
2021/12/05 07:24:16;;;;;;;3.28;2.05;;;3.60;99.90;;;;;;4976521;28;20050;-76
2021/12/05 07:27:04;;;;;;;2.85;1.85;;;3.60;99.90;;;;;;4994449;28;20053;-77
2021/12/05 07:40:35;;;;;;;7.25;2.78;;;3.80;99.90;;;;;;4976213;28;20049;-77
2021/12/05 07:43:07;;;;;;;3.83;2.33;;;3.80;99.90;;;;;;4993178;28;20065;-77
2021/12/05 07:45:48;;;;;;;4.50;2.33;;;3.80;99.90;;;;;;4994191;28;20045;-77
2021/12/05 07:48:20;;;;;;;4.85;2.47;;;3.80;99.90;;;;;;4993869;28;20034;-77
2021/12/05 07:53:26;;;;;;;67.40;43.28;;;3.90;99.90;;;;;;4994134;28;20038;-79
2021/12/05 07:55:58;;;;;;;158.82;108.45;;;3.90;99.90;;;;;;4978375;28;20061;-79
2021/12/05 08:14:35;;;;;;;18.70;12.95;;;4.20;99.90;;;;;;5012228;28;20056;-78
2021/12/05 08:17:03;;;;;;;7.15;4.55;;;4.30;99.90;;;;;;5012652;28;20471;-78
2021/12/05 08:19:29;;;;;;;44.15;30.48;;;4.30;99.90;;;;;;5012892;28;20041;-77
2021/12/05 08:21:56;;;;;;;23.70;14.40;;;4.40;99.90;;;;;;5012201;28;20038;-77
2021/12/05 08:24:30;;;;;;;26.08;19.15;;;4.60;99.90;;;;;;5012668;28;20034;-78
2021/12/05 08:26:57;;;;;;;101.65;65.30;;;4.90;99.90;;;;;;5012410;28;20045;-77
2021/12/05 08:29:33;;;;;;;36.67;25.10;;;5.10;99.90;;;;;;5012854;28;20030;-77
2021/12/05 08:32:54;;;;;;;11.80;7.68;;;5.10;99.90;;;;;;5011926;28;20049;-76
2021/12/05 08:35:46;;;;;;;3.10;2.08;;;5.10;99.90;;;;;;5002625;28;20041;-78
2021/12/05 09:21:53;;;;;;;2.80;1.15;;;5.80;96.70;;;;;;5015132;28;20053;-78
2021/12/05 09:26:58;;;;;;;3.50;1.17;;;5.70;97.20;;;;;;5018081;28;20046;-78
2021/12/05 09:29:55;;;;;;;1.90;0.88;;;5.60;97.70;;;;;;5035765;28;20493;-77
2021/12/05 10:16:00;;;;;;;74.72;48.05;;;6.00;95.80;;;;;;5017434;28;20048;-79
2021/12/05 10:19:47;;;;;;;128.88;91.00;;;5.90;95.90;;;;;;5034634;28;20394;-79
2021/12/05 10:35:53;;;;;;;30.17;20.25;;;6.10;95.40;;;;;;5033946;28;20037;-79
2021/12/05 10:38:27;;;;;;;38.42;31.38;;;6.20;94.90;;;;;;5016381;28;20043;-80
2021/12/05 10:41:02;;;;;;;5.72;4.13;;;6.40;94.40;;;;;;5034424;28;20386;-79
2021/12/05 10:43:31;;;;;;;13.02;9.68;;;6.40;94.40;;;;;;5034828;28;20049;-79
2021/12/05 10:46:04;;;;;;;27.30;18.08;;;6.50;93.90;;;;;;5034641;28;20459;-79
2021/12/05 10:48:34;;;;;;;16.67;11.95;;;6.50;93.60;;;;;;5016616;28;20044;-79
2021/12/05 10:51:04;;;;;;;13.30;5.53;;;6.40;92.90;;;;;;5033721;28;20482;-79
2021/12/05 10:54:00;;;;;;;4.90;3.07;;;6.50;93.20;;;;;;5034272;28;20041;-80
2021/12/05 10:56:33;;;;;;;1.60;1.20;;;6.50;93.30;;;;;;5034573;28;20037;-80
2021/12/05 10:59:03;;;;;;;2.75;1.10;;;6.60;92.80;;;;;;5034150;28;20025;-80
2021/12/05 11:01:29;;;;;;;2.25;1.02;;;6.80;92.40;;;;;;5034154;28;20049;-80
2021/12/05 11:04:03;;;;;;;4.50;2.20;;;6.80;92.30;;;;;;5033696;28;20035;-80
2021/12/05 11:06:29;;;;;;;10.80;2.08;;;6.80;92.40;;;;;;5034081;28;20382;-80
2021/12/05 11:08:58;;;;;;;3.30;1.77;;;6.70;92.00;;;;;;5032996;28;20041;-79
2021/12/05 11:11:25;;;;;;;2.17;1.25;;;6.90;92.10;;;;;;5033233;28;20034;-80
2021/12/05 11:13:51;;;;;;;1.90;1.00;;;6.90;91.90;;;;;;5033587;28;20049;-80
2021/12/05 11:16:43;;;;;;;3.90;2.13;;;6.90;91.70;;;;;;5033467;28;20056;-80
2021/12/05 11:19:17;;;;;;;5.50;1.48;;;6.90;92.10;;;;;;5023950;28;20140;-79
2021/12/05 11:21:51;;;;;;;1.95;1.10;;;7.00;91.30;;;;;;5033950;28;20044;-80
2021/12/05 11:24:22;;;;;;;1.20;0.90;;;7.10;91.20;;;;;;5015522;28;20041;-80
2021/12/05 11:27:09;;;;;;;2.55;1.42;;;7.10;90.80;;;;;;5033741;28;20025;-79
2021/12/05 11:29:40;;;;;;;3.45;2.00;;;7.10;90.60;;;;;;5015861;28;20033;-80
2021/12/05 11:32:13;;;;;;;3.42;1.73;;;7.00;90.30;;;;;;5033049;28;20052;-80
2021/12/05 11:34:39;;;;;;;10.18;1.30;;;7.10;89.80;;;;;;5033534;28;20386;-80
2021/12/05 11:37:06;;;;;;;4.25;3.10;;;7.10;87.10;;;;;;5015520;28;20038;-81
2021/12/05 11:39:32;;;;;;;1.58;0.70;;;7.20;87.60;;;;;;5033357;28;20040;-78
2021/12/05 11:41:59;;;;;;;1.98;0.98;;;7.00;85.50;;;;;;5032425;28;20045;-80
2021/12/05 11:44:26;;;;;;;2.45;1.02;;;6.80;87.80;;;;;;5031912;28;20042;-80
2021/12/05 11:46:52;;;;;;;1.70;0.77;;;6.70;89.50;;;;;;5033535;28;20033;-81
2021/12/05 11:49:23;;;;;;;1.75;0.70;;;6.50;88.60;;;;;;5032453;28;20459;-80
2021/12/05 11:51:58;;;;;;;1.63;0.65;;;6.60;89.40;;;;;;5032902;28;20048;-80
2021/12/05 11:54:29;;;;;;;1.77;0.77;;;6.70;88.40;;;;;;5032718;28;20390;-80
2021/12/05 11:57:05;;;;;;;2.35;0.70;;;6.90;88.10;;;;;;5032941;28;20037;-80
2021/12/05 11:59:31;;;;;;;1.23;0.50;;;6.90;86.40;;;;;;5015600;28;20041;-79
2021/12/05 12:02:17;;;;;;;0.85;0.60;;;6.90;86.80;;;;;;5032902;28;20370;-79
2021/12/05 12:04:52;;;;;;;2.17;0.73;;;7.00;87.00;;;;;;5032822;28;20033;-80
2021/12/05 12:07:40;;;;;;;3.28;1.08;;;7.10;86.00;;;;;;5031311;28;20037;-79
2021/12/05 12:10:15;;;;;;;1.83;0.75;;;7.00;84.80;;;;;;5032229;28;20045;-80
2021/12/05 12:12:59;;;;;;;1.50;0.40;;;6.80;86.20;;;;;;5032630;28;20589;-80
2021/12/05 12:15:27;;;;;;;1.42;0.88;;;6.90;85.60;;;;;;5032134;28;20049;-80
2021/12/05 12:18:03;;;;;;;2.72;1.17;;;6.90;86.40;;;;;;5032662;28;20052;-79
2021/12/05 12:20:33;;;;;;;1.95;0.98;;;6.60;86.60;;;;;;5032713;28;20034;-80
2021/12/05 12:23:00;;;;;;;1.40;1.00;;;6.60;87.00;;;;;;5032763;28;20034;-80
2021/12/05 12:25:34;;;;;;;1.90;0.80;;;6.40;87.40;;;;;;5032087;28;20040;-79
2021/12/05 12:28:01;;;;;;;1.60;0.75;;;6.40;87.30;;;;;;5032443;28;20378;-79
2021/12/05 12:30:32;;;;;;;5.47;4.97;;;6.40;87.70;;;;;;5032148;28;20029;-78
2021/12/05 12:33:03;;;;;;;;;;;6.40;88.10;;;;;;5016371;28;20050;-78
2021/12/05 12:35:32;;;;;;;61.67;42.25;;;6.50;88.50;;;;;;5032520;28;19912;-78
2021/12/05 12:38:10;;;;;;;22.92;13.95;;;6.70;87.80;;;;;;5032524;28;20029;-78
2021/12/05 12:40:44;;;;;;;58.10;40.78;;;6.80;87.30;;;;;;5018262;28;20049;-78
2021/12/05 12:43:39;;;;;;;22.27;10.82;;;6.90;86.50;;;;;;5040812;28;20044;-79
2021/12/05 12:46:29;;;;;;;18.95;10.23;;;6.90;84.20;;;;;;5038185;28;20033;-78
2021/12/05 12:49:15;;;;;;;3.30;1.65;;;6.70;84.60;;;;;;5032211;28;20045;-78
2021/12/05 12:51:43;;;;;;;7.40;3.00;;;6.70;84.90;;;;;;5032216;28;20447;-79
2021/12/05 12:54:14;;;;;;;14.82;9.63;;;6.80;84.60;;;;;;5031445;28;20044;-79
2021/12/05 12:56:42;;;;;;;;;;;7.10;83.70;;;;;;5031880;28;20474;-78
2021/12/05 12:59:18;;;;;;;13.43;6.72;;;7.10;83.20;;;;;;5031705;28;19909;-79
2021/12/05 13:04:39;;;;;;;21.95;13.70;;;7.10;83.90;;;;;;5031285;28;20025;-78
2021/12/05 13:10:08;;;;;;;4.15;2.20;;;7.10;83.40;;;;;;5038252;28;20026;-80
2021/12/05 13:12:44;;;;;;;3.47;1.55;;;7.10;82.90;;;;;;5034405;28;20064;-80
2021/12/05 13:15:20;;;;;;;5.57;4.20;;;7.10;82.70;;;;;;5031549;28;20356;-80
2021/12/05 13:17:50;;;;;;;10.55;8.13;;;6.90;82.40;;;;;;5031803;28;20490;-80
2021/12/05 13:20:53;;;;;;;2.90;1.73;;;6.80;82.90;;;;;;5031667;28;20049;-80
2021/12/05 13:23:33;;;;;;;1.45;0.70;;;6.70;83.60;;;;;;5031522;28;20029;-80
2021/12/05 13:26:14;;;;;;;12.90;9.45;;;6.40;84.70;;;;;;5032190;28;20041;-80
2021/12/05 13:28:44;;;;;;;5.05;4.55;;;6.30;85.00;;;;;;5032179;28;20025;-80
2021/12/05 13:31:29;;;;;;;12.70;11.30;;;6.40;85.20;;;;;;5030641;28;20391;-80
2021/12/05 13:34:13;;;;;;;100.38;73.32;;;6.60;82.60;;;;;;5031771;28;20041;-80
2021/12/05 13:36:41;;;;;;;82.20;52.45;;;6.90;82.10;;;;;;5031654;28;20109;-80
2021/12/05 13:39:28;;;;;;;19.33;13.43;;;6.90;83.30;;;;;;5031583;28;20045;-80
2021/12/05 13:42:06;;;;;;;52.60;35.53;;;6.90;83.60;;;;;;5031727;28;20041;-80
2021/12/05 13:45:01;;;;;;;21.38;13.02;;;6.90;83.40;;;;;;5030918;28;20033;-80
2021/12/05 13:47:39;;;;;;;7.97;6.32;;;6.90;82.50;;;;;;5031153;28;20069;-80
2021/12/05 13:50:31;;;;;;;10.40;7.43;;;7.10;82.50;;;;;;5031774;28;20034;-80
2021/12/05 13:53:03;;;;;;;9.18;4.22;;;7.10;79.50;;;;;;5031481;28;20049;-80
2021/12/05 13:55:50;;;;;;;6.72;4.25;;;7.10;79.30;;;;;;5013709;28;20039;-80
2021/12/05 14:01:23;;;;;;;31.33;21.38;;;7.00;81.10;;;;;;5031764;28;20025;-80
2021/12/05 14:03:58;;;;;;;7.07;5.75;;;6.70;81.10;;;;;;5031401;28;20033;-80
2021/12/05 14:06:47;;;;;;;2.10;0.65;;;6.70;82.90;;;;;;5031646;28;20033;-79
2021/12/05 14:09:32;;;;;;;1.70;1.23;;;6.60;83.10;;;;;;5034471;28;20026;-80
2021/12/05 14:12:24;;;;;;;1.98;1.08;;;6.60;82.70;;;;;;5035062;28;20043;-80
2021/12/05 14:15:05;;;;;;;21.65;13.88;;;6.70;82.60;;;;;;4993867;28;20046;-80
2021/12/05 14:17:40;;;;;;;2.35;1.92;;;6.80;81.80;;;;;;4995382;28;20668;-80
2021/12/05 14:20:14;;;;;;;11.10;4.05;;;6.70;81.50;;;;;;4995977;28;20379;-80
2021/12/05 14:22:48;;;;;;;9.95;7.07;;;6.70;82.30;;;;;;4994477;28;20046;-80
2021/12/05 14:25:21;;;;;;;4.40;2.83;;;6.70;82.60;;;;;;4994826;28;20506;-80
2021/12/05 14:27:52;;;;;;;1.67;1.48;;;6.80;82.90;;;;;;4993852;28;20053;-80
2021/12/05 14:30:20;;;;;;;3.13;0.95;;;6.70;81.30;;;;;;4961781;28;20038;-80
2021/12/05 14:32:49;;;;;;;1.50;0.82;;;6.60;81.90;;;;;;4995153;28;20423;-80
2021/12/05 14:35:23;;;;;;;2.17;1.75;;;6.60;82.60;;;;;;4994926;28;20037;-80
2021/12/05 14:37:51;;;;;;;2.08;1.30;;;6.50;82.20;;;;;;4995267;28;20030;-80
2021/12/05 14:40:19;;;;;;;2.33;1.20;;;6.50;82.30;;;;;;4994857;28;20038;-80
2021/12/05 14:42:48;;;;;;;1.08;0.82;;;6.50;82.30;;;;;;4995205;28;20042;-80
2021/12/05 14:45:15;;;;;;;5.82;3.92;;;6.40;82.60;;;;;;4994386;28;20049;-80
2021/12/05 14:47:44;;;;;;;2.38;1.33;;;6.40;84.00;;;;;;4995220;28;20478;-80
2021/12/05 14:50:27;;;;;;;1.02;0.70;;;6.40;84.00;;;;;;4995227;28;20041;-80
2021/12/05 14:52:56;;;;;;;2.03;1.35;;;6.30;83.50;;;;;;4994151;28;20053;-79
2021/12/05 14:55:24;;;;;;;1.55;1.10;;;6.30;84.50;;;;;;4994330;28;20037;-79
2021/12/05 14:57:54;;;;;;;4.20;3.50;;;6.30;84.90;;;;;;4994893;28;20038;-79
2021/12/05 15:00:28;;;;;;;4.50;4.07;;;6.30;85.00;;;;;;4993933;28;20042;-80
2021/12/05 15:03:13;;;;;;;2.85;2.30;;;6.30;84.90;;;;;;4994907;28;20045;-79
2021/12/05 15:05:45;;;;;;;1.95;1.40;;;6.30;85.20;;;;;;4994718;28;20033;-80
2021/12/05 15:08:15;;;;;;;3.40;1.92;;;6.20;85.10;;;;;;4993795;28;20034;-80
2021/12/05 15:10:44;;;;;;;4.88;1.45;;;6.10;85.40;;;;;;4994215;28;20043;-79
2021/12/05 15:13:12;;;;;;;3.50;1.65;;;5.90;86.10;;;;;;5010665;28;20057;-79
2021/12/05 15:15:38;;;;;;;2.05;1.25;;;5.90;86.90;;;;;;5033335;28;20036;-79
2021/12/05 15:18:12;;;;;;;1.92;0.93;;;5.80;87.20;;;;;;5032526;28;20049;-79
2021/12/05 15:20:38;;;;;;;2.25;1.05;;;5.70;87.60;;;;;;5033266;28;20059;-79
2021/12/05 15:23:08;;;;;;;1.48;1.38;;;5.60;88.20;;;;;;5033624;28;20050;-79
2021/12/05 15:25:38;;;;;;;5.45;2.13;;;5.50;88.70;;;;;;5033430;28;20048;-78
2021/12/05 15:28:07;;;;;;;4.10;1.92;;;5.50;89.40;;;;;;5033819;28;20037;-78
2021/12/05 15:30:40;;;;;;;2.00;1.50;;;5.40;89.70;;;;;;5033612;28;20037;-79
2021/12/05 15:33:11;;;;;;;1.92;1.27;;;5.40;90.00;;;;;;5015431;28;20053;-78
2021/12/05 15:35:38;;;;;;;2.40;0.93;;;5.40;90.10;;;;;;5033071;28;20037;-79
2021/12/05 15:38:10;;;;;;;1.63;1.23;;;5.30;90.30;;;;;;5015920;28;20042;-79
2021/12/05 15:40:40;;;;;;;2.53;1.20;;;5.20;90.50;;;;;;5033141;28;20421;-79
2021/12/05 15:43:10;;;;;;;2.38;1.30;;;5.20;90.60;;;;;;5033180;28;20046;-78
2021/12/05 15:45:38;;;;;;;2.13;1.65;;;5.10;91.20;;;;;;5032796;28;20025;-78
2021/12/05 15:48:04;;;;;;;2.33;1.52;;;5.10;91.00;;;;;;5033653;28;20029;-78
2021/12/05 15:50:34;;;;;;;3.00;1.50;;;5.10;91.10;;;;;;5032634;28;20041;-79
2021/12/05 15:53:11;;;;;;;2.50;1.58;;;5.10;91.20;;;;;;5033102;28;20037;-79
2021/12/05 15:55:44;;;;;;;2.80;1.73;;;5.10;91.30;;;;;;5032213;28;20049;-79
2021/12/05 15:58:23;;;;;;;23.90;17.52;;;5.10;91.50;;;;;;5015498;28;20382;-79
2021/12/05 16:00:57;;;;;;;7.95;5.13;;;5.00;91.70;;;;;;5033157;28;20040;-79
2021/12/05 16:03:27;;;;;;;140.57;104.72;;;5.00;91.80;;;;;;5032585;28;20037;-79
2021/12/05 16:05:57;;;;;;;660.33;504.77;;;5.00;91.80;;;;;;5033022;28;20037;-79
2021/12/05 16:08:28;;;;;;;77.50;45.67;;;5.00;92.00;;;;;;5035519;28;20029;-79
2021/12/05 16:10:58;;;;;;;14.27;6.85;;;5.00;92.00;;;;;;5033081;28;20030;-79
2021/12/05 16:13:25;;;;;;;36.67;19.52;;;5.00;92.00;;;;;;5032206;28;20056;-79
2021/12/05 16:15:55;;;;;;;111.10;80.95;;;5.00;92.20;;;;;;5032931;28;20379;-79
2021/12/05 16:18:33;;;;;;;82.80;48.13;;;5.00;92.10;;;;;;5032146;28;20030;-79
2021/12/05 16:21:05;;;;;;;8.15;5.03;;;5.00;92.30;;;;;;5032826;28;20386;-79
2021/12/05 16:23:35;;;;;;;31.58;14.38;;;5.00;92.20;;;;;;5032135;28;20391;-79
2021/12/05 16:26:11;;;;;;;4.53;3.58;;;5.00;92.40;;;;;;5032820;28;20060;-79
2021/12/05 16:28:49;;;;;;;244.40;161.90;;;5.00;92.50;;;;;;5032259;28;20033;-78
2021/12/05 16:31:24;;;;;;;30.70;22.10;;;5.00;92.60;;;;;;5033762;28;20052;-79
2021/12/05 16:33:55;;;;;;;62.35;41.28;;;4.90;92.70;;;;;;5032466;28;20040;-79
2021/12/05 16:36:29;;;;;;;106.10;75.45;;;4.90;92.80;;;;;;5031885;28;20037;-79
2021/12/05 16:38:55;;;;;;;19.85;15.48;;;4.90;93.00;;;;;;5032708;28;20029;-79
2021/12/05 16:41:30;;;;;;;8.50;5.97;;;4.80;93.20;;;;;;5031727;28;20033;-79
2021/12/05 16:44:22;;;;;;;94.63;53.95;;;4.80;93.50;;;;;;5032609;28;20045;-79
2021/12/05 16:47:01;;;;;;;23.63;16.73;;;4.70;93.80;;;;;;5015411;28;20040;-79
2021/12/05 16:49:32;;;;;;;5.82;4.10;;;4.70;94.10;;;;;;5036348;28;20053;-78
2021/12/05 16:52:05;;;;;;;6.88;5.72;;;4.60;94.40;;;;;;5042292;28;20024;-84
2021/12/05 16:54:37;;;;;;;7.72;4.55;;;4.60;94.60;;;;;;5039794;28;20038;-84
2021/12/05 16:57:20;;;;;;;12.85;6.47;;;4.60;94.50;;;;;;5032604;28;20036;-84
2021/12/05 16:59:49;;;;;;;90.50;59.85;;;4.60;94.70;;;;;;5032903;28;20033;-85
2021/12/05 17:02:22;;;;;;;9.93;8.93;;;4.60;94.80;;;;;;5033421;28;20037;-84
2021/12/05 17:05:05;;;;;;;14.52;8.63;;;4.60;94.70;;;;;;5032662;28;20029;-83
2021/12/05 17:07:50;;;;;;;71.60;50.83;;;4.60;94.80;;;;;;4998009;28;20045;-81
2021/12/05 17:10:25;;;;;;;62.05;39.15;;;4.60;95.50;;;;;;5032124;28;20044;-80
2021/12/05 17:13:35;;;;;;;32.97;27.85;;;4.90;95.60;;;;;;5013822;28;20061;-82
2021/12/05 17:16:12;;;;;;;9.35;7.60;;;4.90;94.80;;;;;;4951639;29;20157;-79
2021/12/05 17:18:41;;;;;;;10.73;5.13;;;4.70;94.30;;;;;;4950229;29;20047;-79
2021/12/05 17:21:12;;;;;;;5.60;4.50;;;4.50;94.70;;;;;;4951144;29;20043;-79
2021/12/05 17:23:44;;;;;;;5.00;4.60;;;4.40;95.50;;;;;;4951027;29;20040;-78
2021/12/05 17:26:26;;;;;;;6.47;4.88;;;4.30;96.00;;;;;;4951775;29;20145;-78
2021/12/05 17:29:06;;;;;;;15.82;14.23;;;4.20;96.30;;;;;;4951627;29;20035;-79
2021/12/05 17:31:39;;;;;;;13.60;12.15;;;4.20;97.50;;;;;;4934791;29;20039;-79
2021/12/05 17:34:09;;;;;;;15.50;11.40;;;4.10;98.10;;;;;;4951704;29;20063;-79
2021/12/05 17:36:39;;;;;;;13.43;10.98;;;4.20;98.90;;;;;;4951326;29;20079;-79
2021/12/05 17:39:32;;;;;;;7.85;7.15;;;4.20;99.20;;;;;;4951561;29;20416;-79
2021/12/05 17:42:04;;;;;;;15.30;7.28;;;4.00;99.50;;;;;;4952117;28;20055;-79
2021/12/05 17:44:31;;;;;;;15.07;9.27;;;4.00;99.90;;;;;;4954833;29;20369;-79
2021/12/05 17:47:00;;;;;;;12.90;8.95;;;3.90;99.90;;;;;;4999446;28;20042;-79
2021/12/05 17:49:29;;;;;;;16.33;9.60;;;3.80;99.90;;;;;;5035015;28;20044;-79
2021/12/05 17:51:58;;;;;;;9.98;8.32;;;3.70;99.90;;;;;;5035705;28;20108;-78
2021/12/05 17:54:33;;;;;;;8.95;8.02;;;3.70;99.90;;;;;;5035242;28;20474;-79
2021/12/05 17:57:07;;;;;;;13.25;11.55;;;3.70;99.90;;;;;;5035459;28;20055;-79
2021/12/05 17:59:55;;;;;;;7.80;7.05;;;3.60;99.90;;;;;;5034898;28;20036;-80
2021/12/05 18:02:53;;;;;;;6.22;4.80;;;3.60;99.90;;;;;;5035417;28;20061;-81
2021/12/05 18:05:25;;;;;;;3.85;2.47;;;3.60;99.90;;;;;;5035507;28;20056;-77
2021/12/05 18:07:54;;;;;;;3.70;3.10;;;3.50;99.90;;;;;;5035244;28;20032;-80
2021/12/05 18:10:25;;;;;;;3.42;3.10;;;3.50;99.90;;;;;;5035022;28;20033;-77
2021/12/05 18:12:56;;;;;;;;;;;3.50;99.90;;;;;;5035388;28;20053;-78
2021/12/05 18:15:27;;;;;;;6.30;3.80;;;3.40;99.90;;;;;;5035088;28;19913;-78
2021/12/05 18:17:55;;;;;;;;;;;3.50;99.90;;;;;;5017670;28;20049;-79
2021/12/05 18:20:25;;;;;;;7.90;2.40;;;3.50;99.90;;;;;;5034789;28;19917;-79
2021/12/05 18:22:54;;;;;;;3.90;2.10;;;3.50;99.90;;;;;;5034797;28;20029;-79
2021/12/05 18:25:20;;;;;;;7.25;2.95;;;3.50;99.90;;;;;;5038262;28;20029;-79
2021/12/05 18:27:47;;;;;;;11.13;3.15;;;3.40;99.90;;;;;;5040267;28;20490;-79
2021/12/05 18:30:16;;;;;;;4.47;3.63;;;3.40;99.90;;;;;;5034975;28;20556;-79
2021/12/05 18:32:43;;;;;;;20.98;18.85;;;3.40;99.90;;;;;;5033931;28;20026;-79